sensor_id;sensor_type;location;lat;lon;timestamp;pressure;altitude;pressure_sealevel;temperature;humidity
788;BME280;16074;42.708;23.312;2023-03-22T00:01:29;140526.25;;;9.18;100.00
788;BME280;16074;42.708;23.312;2023-03-22T00:03:59;140550.28;;;9.28;100.00
788;BME280;16074;42.708;23.312;2023-03-22T00:06:27;140568.31;;;9.36;100.00
788;BME280;16074;42.708;23.312;2023-03-22T00:08:55;140534.69;;;9.22;100.00
788;BME280;16074;42.708;23.312;2023-03-22T00:11:23;140552.69;;;9.29;100.00
788;BME280;16074;42.708;23.312;2023-03-22T00:13:52;140571.94;;;9.37;100.00
788;BME280;16074;42.708;23.312;2023-03-22T00:16:21;140551.53;;;9.29;100.00
788;BME280;16074;42.708;23.312;2023-03-22T00:18:51;140550.28;;;9.28;100.00
788;BME280;16074;42.708;23.312;2023-03-22T00:21:19;140543.06;;;9.25;100.00
788;BME280;16074;42.708;23.312;2023-03-22T00:23:48;140526.25;;;9.18;100.00
788;BME280;16074;42.708;23.312;2023-03-22T00:26:16;140545.47;;;9.26;100.00
788;BME280;16074;42.708;23.312;2023-03-22T00:28:45;140574.34;;;9.38;100.00
788;BME280;16074;42.708;23.312;2023-03-22T00:31:13;140603.22;;;9.50;100.00
788;BME280;16074;42.708;23.312;2023-03-22T00:33:41;140618.84;;;9.56;100.00
788;BME280;16074;42.708;23.312;2023-03-22T00:36:12;140632.13;;;9.62;100.00
788;BME280;16074;42.708;23.312;2023-03-22T00:38:40;140652.56;;;9.70;100.00
788;BME280;16074;42.708;23.312;2023-03-22T00:41:12;140671.81;;;9.78;100.00
788;BME280;16074;42.708;23.312;2023-03-22T00:43:40;140668.16;;;9.77;100.00
788;BME280;16074;42.708;23.312;2023-03-22T00:46:09;140651.31;;;9.70;100.00
788;BME280;16074;42.708;23.312;2023-03-22T00:48:38;140629.72;;;9.61;100.00
788;BME280;16074;42.708;23.312;2023-03-22T00:51:07;140596.00;;;9.47;100.00
788;BME280;16074;42.708;23.312;2023-03-22T00:53:38;140574.34;;;9.38;100.00
788;BME280;16074;42.708;23.312;2023-03-22T00:56:10;140568.31;;;9.36;100.00
788;BME280;16074;42.708;23.312;2023-03-22T00:58:53;140557.50;;;9.31;100.00
788;BME280;16074;42.708;23.312;2023-03-22T01:01:22;140558.75;;;9.32;100.00
788;BME280;16074;42.708;23.312;2023-03-22T01:03:50;140521.44;;;9.16;100.00
788;BME280;16074;42.708;23.312;2023-03-22T01:06:19;140528.66;;;9.19;100.00
788;BME280;16074;42.708;23.312;2023-03-22T01:08:49;140537.09;;;9.23;100.00
788;BME280;16074;42.708;23.312;2023-03-22T01:11:17;140544.31;;;9.26;100.00
788;BME280;16074;42.708;23.312;2023-03-22T01:13:45;140562.31;;;9.33;100.00
788;BME280;16074;42.708;23.312;2023-03-22T01:16:15;140550.28;;;9.28;100.00
788;BME280;16074;42.708;23.312;2023-03-22T01:18:44;140575.53;;;9.39;100.00
788;BME280;16074;42.708;23.312;2023-03-22T01:21:12;140574.34;;;9.38;100.00
788;BME280;16074;42.708;23.312;2023-03-22T01:23:40;140514.22;;;9.13;100.00
788;BME280;16074;42.708;23.312;2023-03-22T01:26:10;140496.19;;;9.06;100.00
788;BME280;16074;42.708;23.312;2023-03-22T01:28:38;140445.69;;;8.85;100.00
788;BME280;16074;42.708;23.312;2023-03-22T01:31:07;140440.88;;;8.83;100.00
788;BME280;16074;42.708;23.312;2023-03-22T01:33:35;140434.88;;;8.80;100.00
788;BME280;16074;42.708;23.312;2023-03-22T01:36:04;140412.06;;;8.71;100.00
788;BME280;16074;42.708;23.312;2023-03-22T01:38:34;140381.97;;;8.58;100.00
788;BME280;16074;42.708;23.312;2023-03-22T01:41:03;140369.97;;;8.53;100.00
788;BME280;16074;42.708;23.312;2023-03-22T01:43:36;140359.16;;;8.49;100.00
788;BME280;16074;42.708;23.312;2023-03-22T01:46:05;140349.53;;;8.45;100.00
788;BME280;16074;42.708;23.312;2023-03-22T01:48:35;140351.94;;;8.46;100.00
788;BME280;16074;42.708;23.312;2023-03-22T01:51:10;140357.97;;;8.48;100.00
788;BME280;16074;42.708;23.312;2023-03-22T01:53:56;140355.56;;;8.47;100.00
788;BME280;16074;42.708;23.312;2023-03-22T01:56:27;140361.56;;;8.50;100.00
788;BME280;16074;42.708;23.312;2023-03-22T01:58:59;140337.53;;;8.40;100.00
788;BME280;16074;42.708;23.312;2023-03-22T02:01:39;140349.53;;;8.45;100.00
788;BME280;16074;42.708;23.312;2023-03-22T02:04:10;140338.75;;;8.40;100.00
788;BME280;16074;42.708;23.312;2023-03-22T02:06:39;140332.72;;;8.38;100.00
788;BME280;16074;42.708;23.312;2023-03-22T02:09:14;140325.50;;;8.35;100.00
788;BME280;16074;42.708;23.312;2023-03-22T02:11:49;140326.72;;;8.35;100.00
788;BME280;16074;42.708;23.312;2023-03-22T02:14:38;140325.50;;;8.35;100.00
788;BME280;16074;42.708;23.312;2023-03-22T02:17:51;140324.31;;;8.34;100.00
788;BME280;16074;42.708;23.312;2023-03-22T02:21:11;140332.72;;;8.38;100.00
788;BME280;16074;42.708;23.312;2023-03-22T02:24:18;140327.91;;;8.36;100.00
788;BME280;16074;42.708;23.312;2023-03-22T02:29:53;140313.47;;;8.30;100.00
788;BME280;16074;42.708;23.312;2023-03-22T02:32:53;140302.69;;;8.26;100.00
788;BME280;16074;42.708;23.312;2023-03-22T02:35:32;140291.91;;;8.21;100.00
788;BME280;16074;42.708;23.312;2023-03-22T02:41:03;140308.69;;;8.28;100.00
788;BME280;16074;42.708;23.312;2023-03-22T02:43:39;140308.69;;;8.28;100.00
788;BME280;16074;42.708;23.312;2023-03-22T02:46:17;140295.47;;;8.23;100.00
788;BME280;16074;42.708;23.312;2023-03-22T02:48:52;140291.91;;;8.21;100.00
788;BME280;16074;42.708;23.312;2023-03-22T02:51:24;140288.25;;;8.20;100.00
788;BME280;16074;42.708;23.312;2023-03-22T02:53:58;140291.91;;;8.21;100.00
788;BME280;16074;42.708;23.312;2023-03-22T02:56:34;140290.66;;;8.21;100.00
788;BME280;16074;42.708;23.312;2023-03-22T02:59:08;140283.47;;;8.18;100.00
788;BME280;16074;42.708;23.312;2023-03-22T03:01:40;140270.22;;;8.12;100.00
788;BME280;16074;42.708;23.312;2023-03-22T03:04:15;140266.59;;;8.11;100.00
788;BME280;16074;42.708;23.312;2023-03-22T03:06:46;140282.28;;;8.17;100.00
788;BME280;16074;42.708;23.312;2023-03-22T03:09:18;140283.47;;;8.18;100.00
788;BME280;16074;42.708;23.312;2023-03-22T03:11:51;140299.06;;;8.24;100.00
788;BME280;16074;42.708;23.312;2023-03-22T03:14:22;140299.06;;;8.24;100.00
788;BME280;16074;42.708;23.312;2023-03-22T03:17:01;140309.91;;;8.28;100.00
788;BME280;16074;42.708;23.312;2023-03-22T03:19:36;140300.28;;;8.25;100.00
788;BME280;16074;42.708;23.312;2023-03-22T03:22:21;140300.28;;;8.25;100.00
788;BME280;16074;42.708;23.312;2023-03-22T03:24:57;140288.25;;;8.20;100.00
788;BME280;16074;42.708;23.312;2023-03-22T03:27:34;140300.28;;;8.25;100.00
788;BME280;16074;42.708;23.312;2023-03-22T03:30:08;140295.47;;;8.23;100.00
788;BME280;16074;42.708;23.312;2023-03-22T03:32:44;140288.25;;;8.20;100.00
788;BME280;16074;42.708;23.312;2023-03-22T03:35:18;140269.00;;;8.12;100.00
788;BME280;16074;42.708;23.312;2023-03-22T03:37:52;140270.22;;;8.12;100.00
788;BME280;16074;42.708;23.312;2023-03-22T03:40:27;140281.06;;;8.17;100.00
788;BME280;16074;42.708;23.312;2023-03-22T03:43:02;140270.22;;;8.12;100.00
788;BME280;16074;42.708;23.312;2023-03-22T03:45:31;140265.41;;;8.10;100.00
788;BME280;16074;42.708;23.312;2023-03-22T03:48:04;140256.97;;;8.07;100.00
788;BME280;16074;42.708;23.312;2023-03-22T03:50:33;140255.78;;;8.06;100.00
788;BME280;16074;42.708;23.312;2023-03-22T03:53:02;140248.59;;;8.03;100.00
788;BME280;16074;42.708;23.312;2023-03-22T03:55:30;140244.97;;;8.02;100.00
788;BME280;16074;42.708;23.312;2023-03-22T03:58:01;140255.78;;;8.06;100.00
788;BME280;16074;42.708;23.312;2023-03-22T04:00:29;140244.97;;;8.02;100.00
788;BME280;16074;42.708;23.312;2023-03-22T04:03:22;140242.56;;;8.01;100.00
788;BME280;16074;42.708;23.312;2023-03-22T04:06:13;140254.56;;;8.06;100.00
788;BME280;16074;42.708;23.312;2023-03-22T04:08:46;140261.78;;;8.09;100.00
788;BME280;16074;42.708;23.312;2023-03-22T04:11:23;140256.97;;;8.07;100.00
788;BME280;16074;42.708;23.312;2023-03-22T04:13:58;140251.00;;;8.04;100.00
788;BME280;16074;42.708;23.312;2023-03-22T04:16:26;140255.78;;;8.06;100.00
788;BME280;16074;42.708;23.312;2023-03-22T04:18:55;140259.38;;;8.08;100.00
788;BME280;16074;42.708;23.312;2023-03-22T04:21:23;140263.00;;;8.09;100.00
788;BME280;16074;42.708;23.312;2023-03-22T04:24:00;140259.38;;;8.08;100.00
788;BME280;16074;42.708;23.312;2023-03-22T04:26:33;140259.38;;;8.08;100.00
788;BME280;16074;42.708;23.312;2023-03-22T04:29:14;140272.63;;;8.13;100.00
788;BME280;16074;42.708;23.312;2023-03-22T04:31:47;140270.22;;;8.12;100.00
788;BME280;16074;42.708;23.312;2023-03-22T04:34:29;140287.09;;;8.19;100.00
788;BME280;16074;42.708;23.312;2023-03-22T04:37:01;140295.47;;;8.23;100.00
788;BME280;16074;42.708;23.312;2023-03-22T04:39:31;140291.91;;;8.21;100.00
788;BME280;16074;42.708;23.312;2023-03-22T04:42:19;140325.50;;;8.35;100.00
788;BME280;16074;42.708;23.312;2023-03-22T04:44:56;140359.16;;;8.49;100.00
788;BME280;16074;42.708;23.312;2023-03-22T04:47:25;140381.97;;;8.58;100.00
788;BME280;16074;42.708;23.312;2023-03-22T04:49:53;140410.84;;;8.70;100.00
788;BME280;16074;42.708;23.312;2023-03-22T04:52:22;140436.06;;;8.81;100.00
788;BME280;16074;42.708;23.312;2023-03-22T04:54:53;140412.06;;;8.71;100.00
788;BME280;16074;42.708;23.312;2023-03-22T04:57:21;140368.78;;;8.53;100.00
788;BME280;16074;42.708;23.312;2023-03-22T04:59:50;140361.56;;;8.50;100.00
788;BME280;16074;42.708;23.312;2023-03-22T05:02:20;140331.53;;;8.37;100.00
788;BME280;16074;42.708;23.312;2023-03-22T05:04:49;140341.16;;;8.41;100.00
788;BME280;16074;42.708;23.312;2023-03-22T05:07:34;140325.50;;;8.35;100.00
788;BME280;16074;42.708;23.312;2023-03-22T05:10:06;140323.09;;;8.34;100.00
788;BME280;16074;42.708;23.312;2023-03-22T05:12:35;140309.91;;;8.28;100.00
788;BME280;16074;42.708;23.312;2023-03-22T05:15:41;140301.47;;;8.25;100.00
788;BME280;16074;42.708;23.312;2023-03-22T05:18:14;140303.88;;;8.26;100.00
788;BME280;16074;42.708;23.312;2023-03-22T05:20:42;140315.88;;;8.31;100.00
788;BME280;16074;42.708;23.312;2023-03-22T05:23:16;140302.69;;;8.26;100.00
788;BME280;16074;42.708;23.312;2023-03-22T05:25:50;140313.47;;;8.30;100.00
788;BME280;16074;42.708;23.312;2023-03-22T05:28:19;140321.91;;;8.33;100.00
788;BME280;16074;42.708;23.312;2023-03-22T05:30:56;140324.31;;;8.34;100.00
788;BME280;16074;42.708;23.312;2023-03-22T05:33:41;140319.50;;;8.32;100.00
788;BME280;16074;42.708;23.312;2023-03-22T05:36:12;140314.72;;;8.30;100.00
788;BME280;16074;42.708;23.312;2023-03-22T05:38:59;140308.69;;;8.28;100.00
788;BME280;16074;42.708;23.312;2023-03-22T05:41:28;140312.31;;;8.29;100.00
788;BME280;16074;42.708;23.312;2023-03-22T05:43:57;140314.72;;;8.30;100.00
788;BME280;16074;42.708;23.312;2023-03-22T05:46:26;140331.53;;;8.37;100.00
788;BME280;16074;42.708;23.312;2023-03-22T05:49:18;140345.97;;;8.43;100.00
788;BME280;16074;42.708;23.312;2023-03-22T05:51:47;140349.53;;;8.45;100.00
788;BME280;16074;42.708;23.312;2023-03-22T05:54:17;140344.72;;;8.43;100.00
788;BME280;16074;42.708;23.312;2023-03-22T05:56:48;140333.94;;;8.38;100.00
788;BME280;16074;42.708;23.312;2023-03-22T05:59:20;140342.31;;;8.42;100.00
788;BME280;16074;42.708;23.312;2023-03-22T06:01:49;140350.78;;;8.45;100.00
788;BME280;16074;42.708;23.312;2023-03-22T06:04:23;140343.56;;;8.42;100.00
788;BME280;16074;42.708;23.312;2023-03-22T06:06:58;140338.75;;;8.40;100.00
788;BME280;16074;42.708;23.312;2023-03-22T06:09:37;140342.31;;;8.42;100.00
788;BME280;16074;42.708;23.312;2023-03-22T06:12:09;140348.38;;;8.44;100.00
788;BME280;16074;42.708;23.312;2023-03-22T06:14:38;140342.31;;;8.42;100.00
788;BME280;16074;42.708;23.312;2023-03-22T06:17:15;140355.56;;;8.47;100.00
788;BME280;16074;42.708;23.312;2023-03-22T06:19:46;140371.19;;;8.54;100.00
788;BME280;16074;42.708;23.312;2023-03-22T06:22:17;140400.03;;;8.66;100.00
788;BME280;16074;42.708;23.312;2023-03-22T06:24:47;140428.88;;;8.78;100.00
788;BME280;16074;42.708;23.312;2023-03-22T06:27:22;140448.09;;;8.86;100.00
788;BME280;16074;42.708;23.312;2023-03-22T06:29:50;140450.50;;;8.87;100.00
788;BME280;16074;42.708;23.312;2023-03-22T06:32:23;140430.06;;;8.78;100.00
788;BME280;16074;42.708;23.312;2023-03-22T06:34:55;140466.16;;;8.93;100.00
788;BME280;16074;42.708;23.312;2023-03-22T06:37:24;140495.00;;;9.05;100.00
788;BME280;16074;42.708;23.312;2023-03-22T06:39:53;140488.97;;;9.03;100.00
788;BME280;16074;42.708;23.312;2023-03-22T06:42:24;140520.25;;;9.16;100.00
788;BME280;16074;42.708;23.312;2023-03-22T06:45:03;140543.06;;;9.25;100.00
788;BME280;16074;42.708;23.312;2023-03-22T06:47:34;140567.13;;;9.35;100.00
788;BME280;16074;42.708;23.312;2023-03-22T06:50:04;140606.81;;;9.51;100.00
788;BME280;16074;42.708;23.312;2023-03-22T06:52:52;140638.09;;;9.64;100.00
788;BME280;16074;42.708;23.312;2023-03-22T06:55:20;140648.91;;;9.69;100.00
788;BME280;16074;42.708;23.312;2023-03-22T06:57:49;140651.31;;;9.70;100.00
788;BME280;16074;42.708;23.312;2023-03-22T07:00:18;140683.84;;;9.83;100.00
788;BME280;16074;42.708;23.312;2023-03-22T07:02:46;140721.13;;;9.99;100.00
788;BME280;16074;42.708;23.312;2023-03-22T07:05:30;140754.88;;;10.13;100.00
788;BME280;16074;42.708;23.312;2023-03-22T07:07:58;140736.81;;;10.05;100.00
788;BME280;16074;42.708;23.312;2023-03-22T07:10:27;140694.66;;;9.88;100.00
788;BME280;16074;42.708;23.312;2023-03-22T07:12:55;140681.44;;;9.82;100.00
788;BME280;16074;42.708;23.312;2023-03-22T07:15:24;140728.41;;;10.02;100.00
788;BME280;16074;42.708;23.312;2023-03-22T07:17:58;140730.81;;;10.03;100.00
788;BME280;16074;42.708;23.312;2023-03-22T07:20:27;140741.63;;;10.07;100.00
788;BME280;16074;42.708;23.312;2023-03-22T07:22:57;140739.22;;;10.06;100.00
788;BME280;16074;42.708;23.312;2023-03-22T07:25:29;140772.94;;;10.20;100.00
788;BME280;16074;42.708;23.312;2023-03-22T07:28:11;140781.34;;;10.24;100.00
788;BME280;16074;42.708;23.312;2023-03-22T07:30:40;140793.38;;;10.29;100.00
788;BME280;16074;42.708;23.312;2023-03-22T07:33:09;140795.78;;;10.30;100.00
788;BME280;16074;42.708;23.312;2023-03-22T07:35:39;140816.28;;;10.38;100.00
788;BME280;16074;42.708;23.312;2023-03-22T07:38:08;140793.38;;;10.29;100.00
788;BME280;16074;42.708;23.312;2023-03-22T07:40:37;140839.13;;;10.48;100.00
788;BME280;16074;42.708;23.312;2023-03-22T07:43:06;140798.19;;;10.31;100.00
788;BME280;16074;42.708;23.312;2023-03-22T07:45:49;140813.88;;;10.37;100.00
788;BME280;16074;42.708;23.312;2023-03-22T07:48:36;140781.34;;;10.24;100.00
788;BME280;16074;42.708;23.312;2023-03-22T07:51:25;140766.94;;;10.18;100.00
788;BME280;16074;42.708;23.312;2023-03-22T07:53:54;140760.88;;;10.15;100.00
788;BME280;16074;42.708;23.312;2023-03-22T07:56:23;140727.19;;;10.01;100.00
788;BME280;16074;42.708;23.312;2023-03-22T07:58:52;140739.22;;;10.06;100.00
788;BME280;16074;42.708;23.312;2023-03-22T08:01:20;140748.84;;;10.10;100.00
788;BME280;16074;42.708;23.312;2023-03-22T08:04:01;140710.28;;;9.94;100.00
788;BME280;16074;42.708;23.312;2023-03-22T08:06:52;140726.00;;;10.01;100.00
788;BME280;16074;42.708;23.312;2023-03-22T08:09:26;140729.59;;;10.02;100.00
788;BME280;16074;42.708;23.312;2023-03-22T08:11:55;140730.81;;;10.03;100.00
788;BME280;16074;42.708;23.312;2023-03-22T08:14:23;140715.09;;;9.96;100.00
788;BME280;16074;42.708;23.312;2023-03-22T08:17:04;140706.69;;;9.93;100.00
788;BME280;16074;42.708;23.312;2023-03-22T08:19:33;140713.91;;;9.96;100.00
788;BME280;16074;42.708;23.312;2023-03-22T08:22:02;140741.63;;;10.07;100.00
788;BME280;16074;42.708;23.312;2023-03-22T08:25:09;140705.47;;;9.92;100.00
788;BME280;16074;42.708;23.312;2023-03-22T08:27:39;140735.63;;;10.05;100.00
788;BME280;16074;42.708;23.312;2023-03-22T08:30:09;140729.59;;;10.02;100.00
788;BME280;16074;42.708;23.312;2023-03-22T08:32:37;140697.06;;;9.89;100.00
788;BME280;16074;42.708;23.312;2023-03-22T08:35:07;140692.25;;;9.87;100.00
788;BME280;16074;42.708;23.312;2023-03-22T08:37:35;140682.63;;;9.83;100.00
788;BME280;16074;42.708;23.312;2023-03-22T08:40:06;140680.22;;;9.82;100.00
788;BME280;16074;42.708;23.312;2023-03-22T08:42:41;140686.25;;;9.84;100.00
788;BME280;16074;42.708;23.312;2023-03-22T08:45:09;140735.63;;;10.05;100.00
788;BME280;16074;42.708;23.312;2023-03-22T08:47:47;140742.84;;;10.08;100.00
788;BME280;16074;42.708;23.312;2023-03-22T08:50:20;140769.34;;;10.19;100.00
788;BME280;16074;42.708;23.312;2023-03-22T08:52:56;140806.66;;;10.34;100.00
788;BME280;16074;42.708;23.312;2023-03-22T08:55:31;140739.22;;;10.06;100.00
788;BME280;16074;42.708;23.312;2023-03-22T08:58:12;140770.53;;;10.19;100.00
788;BME280;16074;42.708;23.312;2023-03-22T09:00:49;140752.47;;;10.12;100.00
788;BME280;16074;42.708;23.312;2023-03-22T09:03:29;140793.38;;;10.29;100.00
788;BME280;16074;42.708;23.312;2023-03-22T09:05:58;140790.97;;;10.28;100.00
788;BME280;16074;42.708;23.312;2023-03-22T09:08:31;140705.47;;;9.92;100.00
788;BME280;16074;42.708;23.312;2023-03-22T09:11:07;140712.69;;;9.95;100.00
788;BME280;16074;42.708;23.312;2023-03-22T09:13:37;140706.69;;;9.93;100.00
788;BME280;16074;42.708;23.312;2023-03-22T09:16:06;140701.88;;;9.91;100.00
788;BME280;16074;42.708;23.312;2023-03-22T09:18:36;140729.59;;;10.02;100.00
788;BME280;16074;42.708;23.312;2023-03-22T09:21:10;140730.81;;;10.03;100.00
788;BME280;16074;42.708;23.312;2023-03-22T09:23:48;140758.47;;;10.14;100.00
788;BME280;16074;42.708;23.312;2023-03-22T09:26:21;140742.84;;;10.08;100.00
788;BME280;16074;42.708;23.312;2023-03-22T09:28:53;140750.06;;;10.11;100.00
788;BME280;16074;42.708;23.312;2023-03-22T09:31:21;140751.25;;;10.11;100.00
788;BME280;16074;42.708;23.312;2023-03-22T09:34:01;140787.38;;;10.26;100.00
788;BME280;16074;42.708;23.312;2023-03-22T09:36:30;140786.16;;;10.26;100.00
788;BME280;16074;42.708;23.312;2023-03-22T09:39:00;140813.88;;;10.37;100.00
788;BME280;16074;42.708;23.312;2023-03-22T09:41:36;140836.72;;;10.47;100.00
788;BME280;16074;42.708;23.312;2023-03-22T09:44:12;140862.00;;;10.57;100.00
788;BME280;16074;42.708;23.312;2023-03-22T09:46:44;140839.13;;;10.48;100.00
788;BME280;16074;42.708;23.312;2023-03-22T09:49:15;140863.22;;;10.58;100.00
788;BME280;16074;42.708;23.312;2023-03-22T09:51:46;140869.22;;;10.60;100.00
788;BME280;16074;42.708;23.312;2023-03-22T09:54:17;140893.31;;;10.70;100.00
788;BME280;16074;42.708;23.312;2023-03-22T09:56:51;140872.88;;;10.62;100.00
788;BME280;16074;42.708;23.312;2023-03-22T09:59:27;140892.13;;;10.69;100.00
788;BME280;16074;42.708;23.312;2023-03-22T10:02:01;140912.59;;;10.78;100.00
788;BME280;16074;42.708;23.312;2023-03-22T10:04:41;140895.72;;;10.71;100.00
788;BME280;16074;42.708;23.312;2023-03-22T10:07:20;140912.59;;;10.78;100.00
788;BME280;16074;42.708;23.312;2023-03-22T10:09:59;140925.81;;;10.83;100.00
788;BME280;16074;42.708;23.312;2023-03-22T10:12:35;140940.28;;;10.89;100.00
788;BME280;16074;42.708;23.312;2023-03-22T10:15:12;140936.69;;;10.88;100.00
788;BME280;16074;42.708;23.312;2023-03-22T10:17:43;140948.75;;;10.93;100.00
788;BME280;16074;42.708;23.312;2023-03-22T10:20:22;140970.44;;;11.02;100.00
788;BME280;16074;42.708;23.312;2023-03-22T10:22:51;140957.16;;;10.96;100.00
788;BME280;16074;42.708;23.312;2023-03-22T10:25:23;140984.84;;;11.08;100.00
788;BME280;16074;42.708;23.312;2023-03-22T10:27:55;141012.59;;;11.19;100.00
788;BME280;16074;42.708;23.312;2023-03-22T10:30:28;141006.53;;;11.17;100.00
788;BME280;16074;42.708;23.312;2023-03-22T10:33:00;141040.28;;;11.31;100.00
788;BME280;16074;42.708;23.312;2023-03-22T10:35:29;141048.69;;;11.34;100.00
788;BME280;16074;42.708;23.312;2023-03-22T10:38:00;141060.75;;;11.39;100.00
788;BME280;16074;42.708;23.312;2023-03-22T10:40:30;141027.03;;;11.25;100.00
788;BME280;16074;42.708;23.312;2023-03-22T10:43:01;141069.22;;;11.43;100.00
788;BME280;16074;42.708;23.312;2023-03-22T10:45:33;141075.22;;;11.45;100.00
788;BME280;16074;42.708;23.312;2023-03-22T10:48:04;141103.00;;;11.57;100.00
788;BME280;16074;42.708;23.312;2023-03-22T10:50:35;141077.63;;;11.46;100.00
788;BME280;16074;42.708;23.312;2023-03-22T10:53:06;141043.91;;;11.32;100.00
788;BME280;16074;42.708;23.312;2023-03-22T10:55:38;141052.34;;;11.36;100.00
788;BME280;16074;42.708;23.312;2023-03-22T10:58:11;141054.75;;;11.37;100.00
788;BME280;16074;42.708;23.312;2023-03-22T11:00:46;141057.16;;;11.38;100.00
788;BME280;16074;42.708;23.312;2023-03-22T11:03:26;141069.22;;;11.43;100.00
788;BME280;16074;42.708;23.312;2023-03-22T11:06:04;141064.38;;;11.41;100.00
788;BME280;16074;42.708;23.312;2023-03-22T11:08:41;141041.50;;;11.31;100.00
788;BME280;16074;42.708;23.312;2023-03-22T11:11:16;141061.97;;;11.40;100.00
788;BME280;16074;42.708;23.312;2023-03-22T11:13:54;141057.16;;;11.38;100.00
788;BME280;16074;42.708;23.312;2023-03-22T11:16:24;141071.63;;;11.44;100.00
788;BME280;16074;42.708;23.312;2023-03-22T11:18:53;141060.75;;;11.39;100.00
788;BME280;16074;42.708;23.312;2023-03-22T11:21:24;141061.97;;;11.40;100.00
788;BME280;16074;42.708;23.312;2023-03-22T11:23:58;141080.03;;;11.47;100.00
788;BME280;16074;42.708;23.312;2023-03-22T11:26:31;141092.09;;;11.52;100.00
788;BME280;16074;42.708;23.312;2023-03-22T11:29:12;141107.84;;;11.59;100.00
788;BME280;16074;42.708;23.312;2023-03-22T11:31:54;141017.41;;;11.21;100.00
788;BME280;16074;42.708;23.312;2023-03-22T11:34:26;141023.41;;;11.24;100.00
788;BME280;16074;42.708;23.312;2023-03-22T11:36:55;141060.75;;;11.39;100.00
788;BME280;16074;42.708;23.312;2023-03-22T11:39:27;141049.91;;;11.35;100.00
788;BME280;16074;42.708;23.312;2023-03-22T11:41:57;141021.00;;;11.23;100.00
788;BME280;16074;42.708;23.312;2023-03-22T11:44:31;141024.63;;;11.24;100.00
788;BME280;16074;42.708;23.312;2023-03-22T11:47:03;140988.47;;;11.09;100.00
788;BME280;16074;42.708;23.312;2023-03-22T11:49:41;141001.72;;;11.15;100.00
788;BME280;16074;42.708;23.312;2023-03-22T11:52:15;141005.34;;;11.16;100.00
788;BME280;16074;42.708;23.312;2023-03-22T11:54:44;141011.34;;;11.19;100.00
788;BME280;16074;42.708;23.312;2023-03-22T11:57:15;140972.84;;;11.03;100.00
788;BME280;16074;42.708;23.312;2023-03-22T11:59:47;140969.19;;;11.01;100.00
788;BME280;16074;42.708;23.312;2023-03-22T12:02:21;140990.88;;;11.10;100.00
788;BME280;16074;42.708;23.312;2023-03-22T12:04:53;140999.31;;;11.14;100.00
788;BME280;16074;42.708;23.312;2023-03-22T12:07:27;141022.22;;;11.23;100.00
788;BME280;16074;42.708;23.312;2023-03-22T12:10:00;140952.34;;;10.94;100.00
788;BME280;16074;42.708;23.312;2023-03-22T12:12:33;140894.53;;;10.70;100.00
788;BME280;16074;42.708;23.312;2023-03-22T12:15:05;140852.38;;;10.53;100.00
788;BME280;16074;42.708;23.312;2023-03-22T12:17:40;140841.53;;;10.49;100.00
788;BME280;16074;42.708;23.312;2023-03-22T12:20:18;140831.91;;;10.45;100.00
788;BME280;16074;42.708;23.312;2023-03-22T12:22:52;140853.59;;;10.54;100.00
788;BME280;16074;42.708;23.312;2023-03-22T12:25:24;140870.47;;;10.61;100.00
788;BME280;16074;42.708;23.312;2023-03-22T12:27:55;140868.03;;;10.60;100.00
788;BME280;16074;42.708;23.312;2023-03-22T12:30:27;140874.03;;;10.62;100.00
788;BME280;16074;42.708;23.312;2023-03-22T12:33:03;140880.09;;;10.65;100.00
788;BME280;16074;42.708;23.312;2023-03-22T12:35:34;140922.22;;;10.82;100.00
788;BME280;16074;42.708;23.312;2023-03-22T12:38:12;140935.47;;;10.87;100.00
788;BME280;16074;42.708;23.312;2023-03-22T12:40:43;140971.59;;;11.02;100.00
788;BME280;16074;42.708;23.312;2023-03-22T12:43:15;140988.47;;;11.09;100.00
788;BME280;16074;42.708;23.312;2023-03-22T12:45:47;141019.81;;;11.22;100.00
788;BME280;16074;42.708;23.312;2023-03-22T12:48:24;141013.75;;;11.20;100.00
788;BME280;16074;42.708;23.312;2023-03-22T12:51:00;141022.22;;;11.23;100.00
788;BME280;16074;42.708;23.312;2023-03-22T12:53:34;141076.44;;;11.46;100.00
788;BME280;16074;42.708;23.312;2023-03-22T12:56:10;141083.69;;;11.49;100.00
788;BME280;16074;42.708;23.312;2023-03-22T12:58:40;141090.91;;;11.52;100.00
788;BME280;16074;42.708;23.312;2023-03-22T13:01:19;141119.84;;;11.64;100.00
788;BME280;16074;42.708;23.312;2023-03-22T13:03:52;141129.50;;;11.68;100.00
788;BME280;16074;42.708;23.312;2023-03-22T13:06:32;141154.84;;;11.78;100.00
788;BME280;16074;42.708;23.312;2023-03-22T13:09:10;141142.78;;;11.73;100.00
788;BME280;16074;42.708;23.312;2023-03-22T13:11:43;141083.69;;;11.49;100.00
788;BME280;16074;42.708;23.312;2023-03-22T13:17:43;141168.06;;;11.84;100.00
788;BME280;16074;42.708;23.312;2023-03-22T13:20:28;141133.13;;;11.69;100.00
788;BME280;16074;42.708;23.312;2023-03-22T13:23:11;141133.13;;;11.69;100.00
788;BME280;16074;42.708;23.312;2023-03-22T13:26:01;141186.13;;;11.91;100.00
788;BME280;16074;42.708;23.312;2023-03-22T13:28:31;141238.03;;;12.12;100.00
788;BME280;16074;42.708;23.312;2023-03-22T13:31:03;141277.81;;;12.29;100.00
788;BME280;16074;42.708;23.312;2023-03-22T13:33:34;141345.34;;;12.57;100.00
788;BME280;16074;42.708;23.312;2023-03-22T13:36:07;141351.41;;;12.59;100.00
788;BME280;16074;42.708;23.312;2023-03-22T13:38:53;141388.78;;;12.75;100.00